sensor_id;sensor_type;location;lat;lon;timestamp;pressure;altitude;pressure_sealevel;temperature;humidity
40315;BME280;26021;45.640;11.302;2023-02-20T00:00:36;99598.25;;;7.64;100.00
40315;BME280;26021;45.640;11.302;2023-02-20T00:03:03;99641.56;;;7.86;100.00
40315;BME280;26021;45.640;11.302;2023-02-20T00:05:29;99636.78;;;7.99;100.00
40315;BME280;26021;45.640;11.302;2023-02-20T00:07:55;99642.69;;;7.93;100.00
40315;BME280;26021;45.640;11.302;2023-02-20T00:10:20;99635.66;;;7.92;100.00
40315;BME280;26021;45.640;11.302;2023-02-20T00:12:46;99596.81;;;7.99;100.00
40315;BME280;26021;45.640;11.302;2023-02-20T00:15:16;99560.13;;;7.54;100.00
40315;BME280;26021;45.640;11.302;2023-02-20T00:17:44;99627.97;;;7.70;100.00
40315;BME280;26021;45.640;11.302;2023-02-20T00:20:19;99624.88;;;7.84;100.00
40315;BME280;26021;45.640;11.302;2023-02-20T00:22:45;99633.97;;;7.91;100.00
40315;BME280;26021;45.640;11.302;2023-02-20T00:25:10;99639.00;;;8.13;100.00
40315;BME280;26021;45.640;11.302;2023-02-20T00:27:36;99633.56;;;7.86;100.00
40315;BME280;26021;45.640;11.302;2023-02-20T00:30:02;99631.03;;;8.04;100.00
40315;BME280;26021;45.640;11.302;2023-02-20T00:32:28;99585.22;;;7.71;100.00
40315;BME280;26021;45.640;11.302;2023-02-20T00:34:53;99640.69;;;8.05;100.00
40315;BME280;26021;45.640;11.302;2023-02-20T00:37:19;99642.09;;;8.09;100.00
40315;BME280;26021;45.640;11.302;2023-02-20T00:39:44;99633.00;;;8.02;100.00
40315;BME280;26021;45.640;11.302;2023-02-20T00:42:10;99645.31;;;8.12;100.00
40315;BME280;26021;45.640;11.302;2023-02-20T00:44:35;99643.66;;;7.92;100.00
40315;BME280;26021;45.640;11.302;2023-02-20T00:47:01;99636.94;;;7.97;100.00
40315;BME280;26021;45.640;11.302;2023-02-20T00:49:26;99647.28;;;7.72;100.00
40315;BME280;26021;45.640;11.302;2023-02-20T00:51:52;99605.38;;;7.45;100.00
40315;BME280;26021;45.640;11.302;2023-02-20T00:54:17;99631.59;;;7.78;100.00
40315;BME280;26021;45.640;11.302;2023-02-20T00:56:43;99649.41;;;7.78;100.00
40315;BME280;26021;45.640;11.302;2023-02-20T00:59:08;99652.50;;;7.73;100.00
40315;BME280;26021;45.640;11.302;2023-02-20T01:01:34;99656.81;;;7.74;100.00
40315;BME280;26021;45.640;11.302;2023-02-20T01:03:59;99631.88;;;7.65;100.00
40315;BME280;26021;45.640;11.302;2023-02-20T01:06:25;99655.28;;;7.72;100.00
40315;BME280;26021;45.640;11.302;2023-02-20T01:08:50;99651.50;;;7.64;100.00
40315;BME280;26021;45.640;11.302;2023-02-20T01:11:16;99645.34;;;7.83;100.00
40315;BME280;26021;45.640;11.302;2023-02-20T01:13:42;99651.50;;;7.74;100.00
40315;BME280;26021;45.640;11.302;2023-02-20T01:16:07;99501.78;;;6.74;100.00
40315;BME280;26021;45.640;11.302;2023-02-20T01:18:33;99653.19;;;7.65;100.00
40315;BME280;26021;45.640;11.302;2023-02-20T01:20:59;99606.66;;;7.50;100.00
40315;BME280;26021;45.640;11.302;2023-02-20T01:23:24;99660.06;;;7.78;100.00
40315;BME280;26021;45.640;11.302;2023-02-20T01:25:49;99651.50;;;7.74;100.00
40315;BME280;26021;45.640;11.302;2023-02-20T01:28:16;99652.34;;;7.75;100.00
40315;BME280;26021;45.640;11.302;2023-02-20T01:30:41;99647.03;;;7.94;100.00
40315;BME280;26021;45.640;11.302;2023-02-20T01:33:07;99647.72;;;7.77;100.00
40315;BME280;26021;45.640;11.302;2023-02-20T01:35:32;99648.16;;;7.82;100.00
40315;BME280;26021;45.640;11.302;2023-02-20T01:37:58;99647.28;;;7.72;100.00
40315;BME280;26021;45.640;11.302;2023-02-20T01:40:25;99586.06;;;7.62;100.00
40315;BME280;26021;45.640;11.302;2023-02-20T01:42:51;99649.53;;;7.95;100.00
40315;BME280;26021;45.640;11.302;2023-02-20T01:45:18;99651.38;;;7.95;100.00
40315;BME280;26021;45.640;11.302;2023-02-20T01:47:44;99654.31;;;8.11;100.00
40315;BME280;26021;45.640;11.302;2023-02-20T01:50:11;99654.19;;;8.22;100.00
40315;BME280;26021;45.640;11.302;2023-02-20T01:52:38;99661.88;;;7.87;100.00
40315;BME280;26021;45.640;11.302;2023-02-20T01:55:09;99672.38;;;7.69;100.00
40315;BME280;26021;45.640;11.302;2023-02-20T01:57:39;99667.63;;;7.63;100.00
40315;BME280;26021;45.640;11.302;2023-02-20T02:00:08;99652.75;;;7.51;100.00
40315;BME280;26021;45.640;11.302;2023-02-20T02:02:36;99682.31;;;7.67;100.00
40315;BME280;26021;45.640;11.302;2023-02-20T02:05:06;99684.84;;;7.69;100.00
40315;BME280;26021;45.640;11.302;2023-02-20T02:07:33;99629.44;;;7.33;100.00
40315;BME280;26021;45.640;11.302;2023-02-20T02:10:02;99689.50;;;7.76;100.00
40315;BME280;26021;45.640;11.302;2023-02-20T02:12:28;99684.44;;;7.63;100.00
40315;BME280;26021;45.640;11.302;2023-02-20T02:14:54;99630.97;;;7.36;100.00
40315;BME280;26021;45.640;11.302;2023-02-20T02:17:24;99688.66;;;7.76;100.00
40315;BME280;26021;45.640;11.302;2023-02-20T02:23:19;99698.63;;;8.03;100.00
40315;BME280;26021;45.640;11.302;2023-02-20T02:26:00;99697.06;;;7.90;100.00
40315;BME280;26021;45.640;11.302;2023-02-20T02:28:50;99696.81;;;8.22;100.00
40315;BME280;26021;45.640;11.302;2023-02-20T02:31:54;99693.00;;;7.86;100.00
40315;BME280;26021;45.640;11.302;2023-02-20T02:42:41;99710.38;;;8.00;100.00
40315;BME280;26021;45.640;11.302;2023-02-20T02:50:34;99698.19;;;8.07;100.00
40315;BME280;26021;45.640;11.302;2023-02-20T02:53:02;99649.97;;;7.72;100.00
40315;BME280;26021;45.640;11.302;2023-02-20T02:55:30;99711.66;;;8.15;100.00
40315;BME280;26021;45.640;11.302;2023-02-20T02:58:01;99661.44;;;7.53;100.00
40315;BME280;26021;45.640;11.302;2023-02-20T03:00:44;99720.22;;;8.09;100.00
40315;BME280;26021;45.640;11.302;2023-02-20T03:03:16;99719.50;;;8.07;100.00
40315;BME280;26021;45.640;11.302;2023-02-20T03:05:54;99713.88;;;7.91;100.00
40315;BME280;26021;45.640;11.302;2023-02-20T03:11:04;99717.13;;;7.94;100.00
40315;BME280;26021;45.640;11.302;2023-02-20T03:13:34;99678.97;;;7.75;100.00
40315;BME280;26021;45.640;11.302;2023-02-20T03:16:27;99714.31;;;7.86;100.00
40315;BME280;26021;45.640;11.302;2023-02-20T03:18:58;99719.22;;;7.91;100.00
40315;BME280;26021;45.640;11.302;2023-02-20T03:21:26;99714.59;;;7.83;100.00
40315;BME280;26021;45.640;11.302;2023-02-20T03:23:56;99676.00;;;7.49;100.00
40315;BME280;26021;45.640;11.302;2023-02-20T03:26:42;99708.41;;;7.83;100.00
40315;BME280;26021;45.640;11.302;2023-02-20T03:29:18;99645.75;;;7.50;100.00
40315;BME280;26021;45.640;11.302;2023-02-20T03:31:59;99697.19;;;7.70;100.00
40315;BME280;26021;45.640;11.302;2023-02-20T03:34:46;99721.84;;;7.72;100.00
40315;BME280;26021;45.640;11.302;2023-02-20T03:37:33;99714.28;;;7.67;100.00
40315;BME280;26021;45.640;11.302;2023-02-20T03:40:21;99727.78;;;7.94;100.00
40315;BME280;26021;45.640;11.302;2023-02-20T03:43:10;99651.06;;;7.50;100.00
40315;BME280;26021;45.640;11.302;2023-02-20T03:46:11;99647.28;;;7.52;100.00
40315;BME280;26021;45.640;11.302;2023-02-20T03:48:53;99723.97;;;7.78;100.00
40315;BME280;26021;45.640;11.302;2023-02-20T03:51:21;99737.00;;;7.81;100.00
40315;BME280;26021;45.640;11.302;2023-02-20T03:54:06;99700.28;;;7.75;100.00
40315;BME280;26021;45.640;11.302;2023-02-20T03:56:37;99709.66;;;7.59;100.00
40315;BME280;26021;45.640;11.302;2023-02-20T03:59:14;99745.44;;;7.95;100.00
40315;BME280;26021;45.640;11.302;2023-02-20T04:01:43;99748.94;;;7.96;100.00
40315;BME280;26021;45.640;11.302;2023-02-20T04:04:15;99745.88;;;8.10;100.00
40315;BME280;26021;45.640;11.302;2023-02-20T04:06:43;99668.44;;;7.54;100.00
40315;BME280;26021;45.640;11.302;2023-02-20T04:09:13;99743.50;;;8.07;100.00
40315;BME280;26021;45.640;11.302;2023-02-20T04:11:58;99732.81;;;7.88;100.00
40315;BME280;26021;45.640;11.302;2023-02-20T04:14:25;99747.41;;;8.13;100.00
40315;BME280;26021;45.640;11.302;2023-02-20T04:17:00;99760.59;;;8.05;100.00
40315;BME280;26021;45.640;11.302;2023-02-20T04:19:27;99751.75;;;8.04;100.00
40315;BME280;26021;45.640;11.302;2023-02-20T04:21:59;99730.81;;;7.71;100.00
40315;BME280;26021;45.640;11.302;2023-02-20T04:24:37;99686.50;;;7.50;100.00
40315;BME280;26021;45.640;11.302;2023-02-20T04:27:06;99763.22;;;7.85;100.00
40315;BME280;26021;45.640;11.302;2023-02-20T04:29:32;99727.72;;;7.65;100.00
40315;BME280;26021;45.640;11.302;2023-02-20T04:31:58;99711.59;;;7.57;100.00
40315;BME280;26021;45.640;11.302;2023-02-20T04:34:24;99768.97;;;7.90;100.00
40315;BME280;26021;45.640;11.302;2023-02-20T04:37:03;99748.06;;;7.76;100.00
40315;BME280;26021;45.640;11.302;2023-02-20T04:39:29;99764.75;;;7.78;100.00
40315;BME280;26021;45.640;11.302;2023-02-20T04:41:55;99756.91;;;7.86;100.00
40315;BME280;26021;45.640;11.302;2023-02-20T04:44:20;99577.56;;;6.99;100.00
40315;BME280;26021;45.640;11.302;2023-02-20T04:46:56;99762.13;;;7.97;100.00
40315;BME280;26021;45.640;11.302;2023-02-20T04:49:21;99748.06;;;7.67;100.00
40315;BME280;26021;45.640;11.302;2023-02-20T04:51:47;99738.78;;;7.61;100.00
40315;BME280;26021;45.640;11.302;2023-02-20T04:54:12;99695.53;;;7.28;100.00
40315;BME280;26021;45.640;11.302;2023-02-20T04:56:38;99755.59;;;7.61;100.00
40315;BME280;26021;45.640;11.302;2023-02-20T04:59:03;99781.31;;;7.82;100.00
40315;BME280;26021;45.640;11.302;2023-02-20T05:01:29;99783.84;;;7.93;100.00
40315;BME280;26021;45.640;11.302;2023-02-20T05:03:55;99780.59;;;7.80;100.00
40315;BME280;26021;45.640;11.302;2023-02-20T05:06:20;99756.34;;;7.73;100.00
40315;BME280;26021;45.640;11.302;2023-02-20T05:08:45;99770.66;;;7.82;100.00
40315;BME280;26021;45.640;11.302;2023-02-20T05:11:11;99779.50;;;7.92;100.00
40315;BME280;26021;45.640;11.302;2023-02-20T05:13:36;99775.44;;;7.97;100.00
40315;BME280;26021;45.640;11.302;2023-02-20T05:16:02;99777.13;;;8.08;100.00
40315;BME280;26021;45.640;11.302;2023-02-20T05:18:28;99669.34;;;7.33;100.00
40315;BME280;26021;45.640;11.302;2023-02-20T05:20:55;99780.63;;;7.99;100.00
40315;BME280;26021;45.640;11.302;2023-02-20T05:23:39;99786.25;;;8.06;100.00
40315;BME280;26021;45.640;11.302;2023-02-20T05:26:12;99783.69;;;7.85;100.00
40315;BME280;26021;45.640;11.302;2023-02-20T05:28:40;99792.47;;;7.66;100.00
40315;BME280;26021;45.640;11.302;2023-02-20T05:31:05;99788.16;;;7.75;100.00
40315;BME280;26021;45.640;11.302;2023-02-20T05:33:31;99783.81;;;7.74;100.00
40315;BME280;26021;45.640;11.302;2023-02-20T05:35:57;99776.78;;;7.73;100.00
40315;BME280;26021;45.640;11.302;2023-02-20T05:38:23;99776.00;;;7.91;100.00
40315;BME280;26021;45.640;11.302;2023-02-20T05:40:48;99769.66;;;7.83;100.00
40315;BME280;26021;45.640;11.302;2023-02-20T05:43:15;99751.28;;;7.70;100.00
40315;BME280;26021;45.640;11.302;2023-02-20T05:45:41;99764.38;;;8.02;100.00
40315;BME280;26021;45.640;11.302;2023-02-20T05:48:06;99781.06;;;8.14;100.00
40315;BME280;26021;45.640;11.302;2023-02-20T05:50:31;99779.16;;;8.25;100.00
40315;BME280;26021;45.640;11.302;2023-02-20T05:52:57;99797.25;;;8.22;100.00
40315;BME280;26021;45.640;11.302;2023-02-20T05:55:22;99801.38;;;7.95;100.00
40315;BME280;26021;45.640;11.302;2023-02-20T05:57:48;99792.38;;;7.77;100.00
40315;BME280;26021;45.640;11.302;2023-02-20T06:00:13;99798.00;;;7.84;100.00
40315;BME280;26021;45.640;11.302;2023-02-20T06:02:39;99788.16;;;7.75;100.00
40315;BME280;26021;45.640;11.302;2023-02-20T06:05:05;99793.03;;;7.70;100.00
40315;BME280;26021;45.640;11.302;2023-02-20T06:07:32;99791.91;;;7.62;100.00
40315;BME280;26021;45.640;11.302;2023-02-20T06:09:58;99788.41;;;7.62;100.00
40315;BME280;26021;45.640;11.302;2023-02-20T06:12:24;99795.03;;;7.77;100.00
40315;BME280;26021;45.640;11.302;2023-02-20T06:14:49;99737.09;;;7.60;100.00
40315;BME280;26021;45.640;11.302;2023-02-20T06:17:15;99799.84;;;8.03;100.00
40315;BME280;26021;45.640;11.302;2023-02-20T06:19:40;99794.88;;;8.28;100.00
40315;BME280;26021;45.640;11.302;2023-02-20T06:22:06;99801.03;;;8.29;100.00
40315;BME280;26021;45.640;11.302;2023-02-20T06:24:31;99803.97;;;8.26;100.00
40315;BME280;26021;45.640;11.302;2023-02-20T06:26:57;99770.81;;;8.00;100.00
40315;BME280;26021;45.640;11.302;2023-02-20T06:29:22;99787.50;;;7.92;100.00
40315;BME280;26021;45.640;11.302;2023-02-20T06:31:48;99816.81;;;8.02;100.00
40315;BME280;26021;45.640;11.302;2023-02-20T06:34:14;99823.13;;;8.10;100.00
40315;BME280;26021;45.640;11.302;2023-02-20T06:36:41;99815.56;;;8.06;100.00
40315;BME280;26021;45.640;11.302;2023-02-20T06:39:10;99774.03;;;7.84;100.00
40315;BME280;26021;45.640;11.302;2023-02-20T06:41:36;99830.00;;;8.13;100.00
40315;BME280;26021;45.640;11.302;2023-02-20T06:44:01;99825.19;;;8.37;100.00
40315;BME280;26021;45.640;11.302;2023-02-20T06:46:27;99834.75;;;8.40;100.00
40315;BME280;26021;45.640;11.302;2023-02-20T06:48:54;99825.47;;;8.34;100.00
40315;BME280;26021;45.640;11.302;2023-02-20T06:51:26;99818.00;;;8.18;100.00
40315;BME280;26021;45.640;11.302;2023-02-20T06:53:52;99783.03;;;8.12;100.00
40315;BME280;26021;45.640;11.302;2023-02-20T06:56:23;99833.47;;;8.34;100.00
40315;BME280;26021;45.640;11.302;2023-02-20T15:33:31;99467.47;;;12.34;100.00
40315;BME280;26021;45.640;11.302;2023-02-20T15:35:57;99528.06;;;12.59;100.00
40315;BME280;26021;45.640;11.302;2023-02-20T15:38:27;99528.22;;;12.74;100.00
40315;BME280;26021;45.640;11.302;2023-02-20T15:41:00;99529.44;;;12.63;100.00
40315;BME280;26021;45.640;11.302;2023-02-20T15:43:26;99485.25;;;12.27;100.00
40315;BME280;26021;45.640;11.302;2023-02-20T15:45:52;99541.84;;;12.48;100.00
40315;BME280;26021;45.640;11.302;2023-02-20T15:48:18;99535.19;;;12.36;100.00
40315;BME280;26021;45.640;11.302;2023-02-20T15:50:44;99513.25;;;12.24;100.00
40315;BME280;26021;45.640;11.302;2023-02-20T15:53:30;99509.41;;;12.27;100.00
40315;BME280;26021;45.640;11.302;2023-02-20T15:55:58;99513.56;;;12.37;100.00
40315;BME280;26021;45.640;11.302;2023-02-20T15:58:26;99527.81;;;12.38;100.00
40315;BME280;26021;45.640;11.302;2023-02-20T16:00:52;99519.97;;;12.20;100.00
40315;BME280;26021;45.640;11.302;2023-02-20T16:03:21;99521.47;;;12.23;100.00
40315;BME280;26021;45.640;11.302;2023-02-20T16:05:47;99524.31;;;12.29;100.00
40315;BME280;26021;45.640;11.302;2023-02-20T16:08:12;99527.84;;;12.22;100.00
40315;BME280;26021;45.640;11.302;2023-02-20T16:10:38;99522.50;;;12.05;100.00
40315;BME280;26021;45.640;11.302;2023-02-20T16:13:03;99481.78;;;11.61;100.00
40315;BME280;26021;45.640;11.302;2023-02-20T16:15:29;99474.25;;;11.40;100.00
40315;BME280;26021;45.640;11.302;2023-02-20T16:17:55;99387.38;;;11.02;100.00
40315;BME280;26021;45.640;11.302;2023-02-20T16:20:27;99536.91;;;11.88;100.00
40315;BME280;26021;45.640;11.302;2023-02-20T16:22:53;99531.72;;;11.78;100.00
40315;BME280;26021;45.640;11.302;2023-02-20T16:25:20;99534.22;;;11.88;100.00
40315;BME280;26021;45.640;11.302;2023-02-20T16:27:46;99536.88;;;11.39;100.00
40315;BME280;26021;45.640;11.302;2023-02-20T16:30:24;99543.56;;;11.43;100.00
40315;BME280;26021;45.640;11.302;2023-02-20T16:32:51;99543.72;;;11.34;100.00
40315;BME280;26021;45.640;11.302;2023-02-20T16:35:18;99535.19;;;11.30;100.00
40315;BME280;26021;45.640;11.302;2023-02-20T16:37:44;99543.16;;;11.14;100.00
40315;BME280;26021;45.640;11.302;2023-02-20T16:40:11;99544.84;;;11.15;100.00
40315;BME280;26021;45.640;11.302;2023-02-20T16:42:37;99545.63;;;11.07;100.00
40315;BME280;26021;45.640;11.302;2023-02-20T16:45:15;99542.63;;;11.02;100.00
40315;BME280;26021;45.640;11.302;2023-02-20T16:47:41;99548.66;;;11.12;100.00
40315;BME280;26021;45.640;11.302;2023-02-20T16:50:12;99548.94;;;10.93;100.00
40315;BME280;26021;45.640;11.302;2023-02-20T16:52:40;99552.41;;;10.77;100.00
40315;BME280;26021;45.640;11.302;2023-02-20T16:55:18;99549.47;;;10.97;100.00
40315;BME280;26021;45.640;11.302;2023-02-20T16:57:43;99499.44;;;10.47;100.00
40315;BME280;26021;45.640;11.302;2023-02-20T17:00:14;99547.06;;;10.43;100.00
40315;BME280;26021;45.640;11.302;2023-02-20T17:02:40;99472.19;;;9.92;100.00
40315;BME280;26021;45.640;11.302;2023-02-20T17:05:06;99543.31;;;10.36;100.00
40315;BME280;26021;45.640;11.302;2023-02-20T17:07:31;99557.69;;;10.35;100.00
40315;BME280;26021;45.640;11.302;2023-02-20T17:09:57;99560.94;;;10.47;100.00
40315;BME280;26021;45.640;11.302;2023-02-20T17:12:23;99561.03;;;10.37;100.00
40315;BME280;26021;45.640;11.302;2023-02-20T17:14:49;99565.03;;;10.15;100.00
40315;BME280;26021;45.640;11.302;2023-02-20T17:17:15;99555.34;;;10.14;100.00
40315;BME280;26021;45.640;11.302;2023-02-20T17:19:42;99562.22;;;10.17;100.00
40315;BME280;26021;45.640;11.302;2023-02-20T17:22:09;99484.28;;;9.60;100.00
40315;BME280;26021;45.640;11.302;2023-02-20T17:24:38;99573.00;;;10.25;100.00
40315;BME280;26021;45.640;11.302;2023-02-20T17:27:04;99567.13;;;10.04;100.00
40315;BME280;26021;45.640;11.302;2023-02-20T17:29:29;99571.19;;;9.90;100.00
40315;BME280;26021;45.640;11.302;2023-02-20T17:31:55;99562.72;;;9.95;100.00
40315;BME280;26021;45.640;11.302;2023-02-20T17:34:20;99577.75;;;9.96;100.00
40315;BME280;26021;45.640;11.302;2023-02-20T17:36:46;99575.94;;;9.78;100.00
40315;BME280;26021;45.640;11.302;2023-02-20T17:39:16;99574.88;;;9.89;100.00
40315;BME280;26021;45.640;11.302;2023-02-20T17:41:42;99580.00;;;9.82;100.00
40315;BME280;26021;45.640;11.302;2023-02-20T17:44:08;99584.31;;;9.66;100.00
40315;BME280;26021;45.640;11.302;2023-02-20T17:46:33;99588.13;;;9.63;100.00
40315;BME280;26021;45.640;11.302;2023-02-20T17:48:59;99581.41;;;9.59;100.00
40315;BME280;26021;45.640;11.302;2023-02-20T17:51:24;99586.75;;;9.41;100.00
40315;BME280;26021;45.640;11.302;2023-02-20T17:53:50;99603.38;;;9.35;100.00
40315;BME280;26021;45.640;11.302;2023-02-20T17:56:15;99593.31;;;9.29;100.00
40315;BME280;26021;45.640;11.302;2023-02-20T17:58:42;99591.28;;;9.59;100.00
40315;BME280;26021;45.640;11.302;2023-02-20T18:01:08;99590.88;;;9.53;100.00
40315;BME280;26021;45.640;11.302;2023-02-20T18:03:34;99592.41;;;9.38;100.00
40315;BME280;26021;45.640;11.302;2023-02-20T18:05:59;99597.72;;;9.20;100.00
40315;BME280;26021;45.640;11.302;2023-02-20T18:08:25;99468.63;;;8.58;100.00
40315;BME280;26021;45.640;11.302;2023-02-20T18:10:50;99593.47;;;9.28;100.00
40315;BME280;26021;45.640;11.302;2023-02-20T18:13:16;99506.53;;;8.80;100.00
40315;BME280;26021;45.640;11.302;2023-02-20T18:15:41;99534.41;;;8.95;100.00
40315;BME280;26021;45.640;11.302;2023-02-20T18:18:07;99589.38;;;9.06;100.00
40315;BME280;26021;45.640;11.302;2023-02-20T18:20:33;99588.28;;;8.99;100.00
40315;BME280;26021;45.640;11.302;2023-02-20T18:23:00;99585.03;;;9.05;100.00
40315;BME280;26021;45.640;11.302;2023-02-20T18:25:25;99568.03;;;9.06;100.00
40315;BME280;26021;45.640;11.302;2023-02-20T18:27:51;99576.81;;;9.16;100.00
40315;BME280;26021;45.640;11.302;2023-02-20T18:30:17;99549.59;;;8.85;100.00
40315;BME280;26021;45.640;11.302;2023-02-20T18:32:43;99497.97;;;8.76;100.00
40315;BME280;26021;45.640;11.302;2023-02-20T18:35:10;99578.25;;;9.10;100.00
40315;BME280;26021;45.640;11.302;2023-02-20T18:37:36;99572.28;;;8.99;100.00
40315;BME280;26021;45.640;11.302;2023-02-20T18:40:03;99495.78;;;8.44;100.00
40315;BME280;26021;45.640;11.302;2023-02-20T18:42:28;99534.22;;;8.69;100.00
40315;BME280;26021;45.640;11.302;2023-02-20T18:44:54;99532.75;;;8.57;100.00
40315;BME280;26021;45.640;11.302;2023-02-20T18:47:19;99551.22;;;8.68;100.00
40315;BME280;26021;45.640;11.302;2023-02-20T18:49:48;99569.09;;;8.58;100.00
40315;BME280;26021;45.640;11.302;2023-02-20T18:52:15;99544.69;;;8.53;100.00
40315;BME280;26021;45.640;11.302;2023-02-20T18:54:40;99559.75;;;8.72;100.00
40315;BME280;26021;45.640;11.302;2023-02-20T18:57:05;99547.69;;;8.40;100.00
40315;BME280;26021;45.640;11.302;2023-02-20T18:59:31;99484.94;;;7.99;100.00
40315;BME280;26021;45.640;11.302;2023-02-20T19:01:57;99561.81;;;8.50;100.00
40315;BME280;26021;45.640;11.302;2023-02-20T19:04:23;99562.53;;;8.52;100.00
40315;BME280;26021;45.640;11.302;2023-02-20T19:06:49;99556.09;;;8.45;100.00
40315;BME280;26021;45.640;11.302;2023-02-20T19:09:20;99523.59;;;8.22;100.00
40315;BME280;26021;45.640;11.302;2023-02-20T19:11:51;99557.91;;;8.45;100.00
40315;BME280;26021;45.640;11.302;2023-02-20T19:14:18;99554.16;;;8.38;100.00
40315;BME280;26021;45.640;11.302;2023-02-20T19:16:55;99556.72;;;8.20;100.00
40315;BME280;26021;45.640;11.302;2023-02-20T19:19:23;99541.28;;;8.14;100.00
40315;BME280;26021;45.640;11.302;2023-02-20T19:21:50;99549.56;;;8.20;100.00
40315;BME280;26021;45.640;11.302;2023-02-20T19:24:16;99554.56;;;8.43;100.00
40315;BME280;26021;45.640;11.302;2023-02-20T19:26:42;99556.63;;;8.49;100.00
40315;BME280;26021;45.640;11.302;2023-02-20T19:29:08;99550.81;;;8.36;100.00
40315;BME280;26021;45.640;11.302;2023-02-20T19:31:33;99554.03;;;8.20;100.00
40315;BME280;26021;45.640;11.302;2023-02-20T19:33:59;99550.78;;;8.16;100.00
40315;BME280;26021;45.640;11.302;2023-02-20T19:36:24;99554.88;;;8.20;100.00
40315;BME280;26021;45.640;11.302;2023-02-20T19:38:50;99553.91;;;8.12;100.00
40315;BME280;26021;45.640;11.302;2023-02-20T19:41:16;99555.88;;;8.00;100.00
40315;BME280;26021;45.640;11.302;2023-02-20T19:43:43;99561.22;;;8.00;100.00
40315;BME280;26021;45.640;11.302;2023-02-20T19:46:18;99554.31;;;8.17;100.00
40315;BME280;26021;45.640;11.302;2023-02-20T19:48:44;99552.22;;;8.20;100.00
40315;BME280;26021;45.640;11.302;2023-02-20T19:51:11;99539.09;;;7.90;100.00
40315;BME280;26021;45.640;11.302;2023-02-20T19:53:37;99552.69;;;7.87;100.00
40315;BME280;26021;45.640;11.302;2023-02-20T19:56:03;99553.06;;;8.02;100.00
40315;BME280;26021;45.640;11.302;2023-02-20T19:58:29;99548.59;;;8.02;100.00
40315;BME280;26021;45.640;11.302;2023-02-20T20:00:55;99552.28;;;7.72;100.00
40315;BME280;26021;45.640;11.302;2023-02-20T20:03:21;99552.81;;;7.85;100.00
40315;BME280;26021;45.640;11.302;2023-02-20T20:05:46;99494.03;;;7.50;100.00
40315;BME280;26021;45.640;11.302;2023-02-20T20:08:12;99552.00;;;7.65;100.00
40315;BME280;26021;45.640;11.302;2023-02-20T20:10:38;99550.44;;;7.82;100.00
40315;BME280;26021;45.640;11.302;2023-02-20T20:13:03;99549.88;;;7.79;100.00
40315;BME280;26021;45.640;11.302;2023-02-20T20:15:30;99546.97;;;7.72;100.00
40315;BME280;26021;45.640;11.302;2023-02-20T20:17:58;99548.50;;;7.55;100.00
40315;BME280;26021;45.640;11.302;2023-02-20T20:20:25;99548.09;;;7.50;100.00
40315;BME280;26021;45.640;11.302;2023-02-20T20:22:53;99544.72;;;7.77;100.00
40315;BME280;26021;45.640;11.302;2023-02-20T20:25:20;99555.66;;;7.74;100.00
40315;BME280;26021;45.640;11.302;2023-02-20T20:27:50;99539.81;;;7.63;100.00
40315;BME280;26021;45.640;11.302;2023-02-20T20:30:21;99546.69;;;7.75;100.00
40315;BME280;26021;45.640;11.302;2023-02-20T20:32:48;99547.66;;;7.55;100.00
40315;BME280;26021;45.640;11.302;2023-02-20T20:35:15;99492.19;;;7.31;100.00
40315;BME280;26021;45.640;11.302;2023-02-20T20:37:40;99488.97;;;7.18;100.00
40315;BME280;26021;45.640;11.302;2023-02-20T20:40:06;99547.09;;;7.61;100.00
40315;BME280;26021;45.640;11.302;2023-02-20T20:42:32;99549.03;;;7.40;100.00
40315;BME280;26021;45.640;11.302;2023-02-20T20:44:58;99472.84;;;6.90;100.00
40315;BME280;26021;45.640;11.302;2023-02-20T20:47:26;99536.84;;;7.37;100.00
40315;BME280;26021;45.640;11.302;2023-02-20T20:49:52;99504.22;;;7.25;100.00
40315;BME280;26021;45.640;11.302;2023-02-20T20:52:18;99534.91;;;7.39;100.00
40315;BME280;26021;45.640;11.302;2023-02-20T20:54:52;99514.88;;;7.25;100.00
40315;BME280;26021;45.640;11.302;2023-02-20T20:57:19;99491.06;;;7.05;100.00
40315;BME280;26021;45.640;11.302;2023-02-20T20:59:45;99483.34;;;7.11;100.00
40315;BME280;26021;45.640;11.302;2023-02-20T21:02:15;99525.38;;;7.37;100.00
40315;BME280;26021;45.640;11.302;2023-02-20T21:04:41;99473.69;;;7.00;100.00
40315;BME280;26021;45.640;11.302;2023-02-20T21:07:07;99492.16;;;7.02;100.00
40315;BME280;26021;45.640;11.302;2023-02-20T21:09:32;99522.00;;;7.15;100.00
40315;BME280;26021;45.640;11.302;2023-02-20T21:11:58;99499.88;;;7.05;100.00
40315;BME280;26021;45.640;11.302;2023-02-20T21:14:23;99507.16;;;7.22;100.00
40315;BME280;26021;45.640;11.302;2023-02-20T21:16:49;99506.88;;;7.16;100.00
40315;BME280;26021;45.640;11.302;2023-02-20T21:19:15;99506.44;;;7.01;100.00
40315;BME280;26021;45.640;11.302;2023-02-20T21:21:40;99508.00;;;7.04;100.00
40315;BME280;26021;45.640;11.302;2023-02-20T21:24:06;99504.63;;;6.92;100.00
40315;BME280;26021;45.640;11.302;2023-02-20T21:26:31;99505.19;;;6.95;100.00
40315;BME280;26021;45.640;11.302;2023-02-20T21:28:58;99497.59;;;6.81;100.00
40315;BME280;26021;45.640;11.302;2023-02-20T21:31:24;99500.84;;;6.94;100.00
40315;BME280;26021;45.640;11.302;2023-02-20T21:33:51;99498.59;;;6.90;100.00
40315;BME280;26021;45.640;11.302;2023-02-20T21:36:18;99495.38;;;6.96;100.00
40315;BME280;26021;45.640;11.302;2023-02-20T21:38:44;99473.41;;;7.04;100.00
40315;BME280;26021;45.640;11.302;2023-02-20T21:41:09;99489.22;;;6.95;100.00
40315;BME280;26021;45.640;11.302;2023-02-20T21:43:55;99486.56;;;6.95;100.00
40315;BME280;26021;45.640;11.302;2023-02-20T21:46:39;99477.75;;;6.85;100.00